Time;durP1;ratioP1;P1;durP2;ratioP2;P2;SDS_P1;SDS_P2;PMS_P1;PMS_P2;Temp;Humidity;BMP_temperature;BMP_pressure;BME280_temperature;BME280_humidity;BME280_pressure;Samples;Min_cycle;Max_cycle;Signal;HPM_P1;HPM_P2
2023/05/27 00:00:49;;;;;;;13.60;5.47;;;11.30;99.90;;;-141.84;60.03;20130.91;5069590;28;20201;-66
2023/05/27 00:03:18;;;;;;;10.40;4.73;;;11.20;99.90;;;-141.84;60.77;20071.97;5070984;28;20668;-66
2023/05/27 00:05:46;;;;;;;8.67;4.60;;;11.20;99.90;;;-141.84;60.51;20106.50;5071501;28;20208;-67
2023/05/27 00:08:14;;;;;;;10.23;4.40;;;11.10;99.90;;;-141.84;60.46;20110.56;5070818;28;20311;-67
2023/05/27 00:10:44;;;;;;;9.60;4.37;;;11.10;99.90;;;-141.84;61.52;20084.16;5070831;28;20296;-66
2023/05/27 00:13:13;;;;;;;10.77;4.50;;;10.90;99.90;;;-141.84;60.49;20080.09;5071261;28;20238;-66
2023/05/27 00:15:42;;;;;;;11.00;4.70;;;11.00;99.90;;;-141.84;59.97;20130.91;5070706;28;20600;-66
2023/05/27 00:18:10;;;;;;;10.10;4.33;;;11.10;99.90;;;-141.84;60.92;20063.81;5071313;28;20243;-67
2023/05/27 00:20:38;;;;;;;8.50;4.70;;;11.00;99.90;;;-141.84;60.60;20108.53;5071003;28;20196;-66
2023/05/27 00:23:07;;;;;;;9.50;4.97;;;11.10;99.90;;;-141.84;60.57;20080.09;5071018;28;20211;-67
2023/05/27 00:25:36;;;;;;;10.73;4.97;;;10.90;99.90;;;-141.84;60.70;20116.66;5070734;28;20659;-67
2023/05/27 00:28:05;;;;;;;10.63;5.43;;;11.00;99.90;;;-141.84;61.05;20110.56;5070848;28;20723;-67
2023/05/27 00:30:33;;;;;;;10.20;4.60;;;11.00;99.90;;;-141.84;61.31;20078.06;5070328;28;20661;-67
2023/05/27 00:33:01;;;;;;;11.67;4.70;;;10.90;99.90;;;-141.84;61.08;20065.84;5070801;28;20271;-67
2023/05/27 00:35:30;;;;;;;11.77;4.80;;;10.90;99.90;;;-141.84;61.45;20086.19;5070788;28;20227;-66
2023/05/27 00:37:58;;;;;;;12.23;5.13;;;10.90;99.90;;;-141.84;61.65;20053.66;5070676;28;20250;-66
2023/05/27 00:40:30;;;;;;;10.70;4.90;;;10.90;99.90;;;-141.84;59.85;20128.88;5071294;28;20621;-67
2023/05/27 00:42:58;;;;;;;9.73;4.70;;;11.00;99.90;;;-141.84;60.77;20078.06;5057149;28;20194;-67
2023/05/27 00:45:28;;;;;;;9.67;4.60;;;11.00;99.90;;;-141.84;61.29;20090.25;5065193;28;20230;-67
2023/05/27 00:47:56;;;;;;;12.87;5.20;;;10.90;99.90;;;-141.84;61.37;20098.38;5070629;28;20240;-68
2023/05/27 00:50:27;;;;;;;7.23;4.50;;;10.80;99.90;;;-141.84;61.59;20041.47;5070538;28;20208;-66
2023/05/27 00:52:56;;;;;;;10.00;4.97;;;10.80;99.90;;;-141.84;62.61;20019.13;5070630;28;20567;-67
2023/05/27 00:55:25;;;;;;;9.30;4.87;;;10.70;99.90;;;-141.84;61.22;20067.88;5070340;28;20247;-66
2023/05/27 00:57:54;;;;;;;13.33;5.00;;;10.80;99.90;;;-141.84;61.22;20074.00;5070853;28;20204;-67
2023/05/27 01:00:23;;;;;;;9.90;5.10;;;10.80;99.90;;;-141.84;62.02;20035.38;5062678;28;20197;-66
2023/05/27 01:02:52;;;;;;;8.27;4.63;;;10.70;99.90;;;-141.84;62.29;20029.28;5050264;28;20243;-66
2023/05/27 01:05:21;;;;;;;12.33;5.23;;;10.70;99.90;;;-141.84;60.74;20112.59;5068105;28;20204;-67
2023/05/27 01:08:11;;;;;;;9.97;5.10;;;10.80;99.90;;;-141.84;61.15;20094.31;5070167;28;20272;-66
2023/05/27 01:10:47;;;;;;;12.33;4.97;;;10.80;99.90;;;-141.84;61.57;20051.63;5070455;28;20236;-67
2023/05/27 01:13:26;;;;;;;11.37;5.30;;;10.70;99.90;;;-141.84;61.57;20069.94;5075672;28;20180;-66
2023/05/27 01:16:00;;;;;;;12.50;5.37;;;10.70;99.90;;;-141.84;62.04;20045.53;5076882;28;20188;-67
2023/05/27 01:18:33;;;;;;;11.43;4.60;;;10.70;99.90;;;-141.84;62.72;20039.44;5076731;28;20705;-66
2023/05/27 01:21:10;;;;;;;11.63;5.00;;;10.60;99.90;;;-141.84;61.65;20078.06;5077100;28;20627;-67
2023/05/27 01:23:42;;;;;;;8.80;4.70;;;10.60;99.90;;;-141.84;62.61;20021.16;5077194;28;20670;-66
2023/05/27 01:26:10;;;;;;;10.20;4.73;;;10.60;99.90;;;-141.84;63.49;20010.97;5076782;28;20568;-66
2023/05/27 01:28:39;;;;;;;8.10;4.67;;;10.50;99.90;;;-141.84;63.45;20002.84;5075542;28;20236;-66
2023/05/27 01:31:14;;;;;;;11.67;5.20;;;10.40;99.90;;;-141.84;63.24;20013.00;5062995;28;20498;-66
2023/05/27 01:33:56;;;;;;;13.87;5.07;;;10.40;99.90;;;-141.84;63.16;19988.63;5056702;28;20576;-66
2023/05/27 01:36:29;;;;;;;11.03;4.73;;;10.40;99.90;;;-141.84;63.10;20002.84;5056897;28;20620;-66
2023/05/27 01:39:01;;;;;;;10.33;5.07;;;10.40;99.90;;;-141.84;63.16;20000.81;5056990;28;20182;-67
2023/05/27 01:41:30;;;;;;;8.60;4.47;;;10.40;99.90;;;-141.84;63.94;20004.88;5056939;28;20224;-67
2023/05/27 01:43:59;;;;;;;11.80;5.07;;;10.30;99.90;;;-141.84;62.84;20055.69;5059798;28;20205;-66
2023/05/27 01:46:27;;;;;;;11.47;4.97;;;10.40;99.90;;;-141.84;62.85;20013.00;5076811;28;20315;-66
2023/05/27 01:48:56;;;;;;;11.30;5.47;;;10.40;99.90;;;-141.84;63.55;19998.78;5076865;28;20204;-66
2023/05/27 01:51:24;;;;;;;13.47;5.40;;;10.30;99.90;;;-141.84;63.42;20023.19;5076778;28;20283;-68
2023/05/27 01:53:52;;;;;;;9.17;4.73;;;10.30;99.90;;;-141.84;62.99;20017.09;5076847;28;20228;-67
2023/05/27 01:56:22;;;;;;;11.40;4.90;;;10.30;99.90;;;-141.84;63.54;19974.41;5076689;28;20338;-67
2023/05/27 01:58:50;;;;;;;10.13;5.07;;;10.20;99.90;;;-141.84;64.44;19933.75;5076614;28;20231;-67
2023/05/27 02:01:19;;;;;;;11.33;5.37;;;10.20;99.90;;;-141.84;63.20;20033.34;5075696;28;20304;-66
2023/05/27 02:03:47;;;;;;;11.03;5.37;;;10.30;99.90;;;-141.84;62.98;20013.00;5076594;28;20207;-67
2023/05/27 02:06:15;;;;;;;12.13;5.83;;;10.20;99.90;;;-141.84;63.00;20031.31;5076332;28;20734;-66
2023/05/27 02:08:44;;;;;;;9.47;5.10;;;10.30;99.90;;;-141.84;63.50;20004.88;5076135;28;20203;-66
2023/05/27 02:11:12;;;;;;;11.63;5.30;;;10.30;99.90;;;-141.84;63.65;19988.63;5076134;28;20226;-66
2023/05/27 02:13:42;;;;;;;11.03;5.33;;;10.20;99.90;;;-141.84;63.89;19992.69;5076549;28;20224;-66
2023/05/27 02:16:12;;;;;;;14.00;5.67;;;10.20;99.90;;;-141.84;63.50;20008.94;5075961;28;20687;-66
2023/05/27 02:18:40;;;;;;;9.07;5.13;;;10.20;99.90;;;-141.84;62.93;20000.81;5076506;28;20211;-66
2023/05/27 02:21:08;;;;;;;10.03;5.33;;;10.20;99.90;;;-141.84;63.73;19980.50;5076578;28;20236;-66
2023/05/27 02:23:37;;;;;;;11.67;5.47;;;10.20;99.90;;;-141.84;64.33;20008.94;5074350;28;20262;-66
2023/05/27 02:26:05;;;;;;;13.33;5.53;;;10.10;99.90;;;-141.84;64.95;19945.94;5073416;28;20253;-67
2023/05/27 02:28:33;;;;;;;10.03;5.50;;;10.00;99.90;;;-141.84;65.13;19952.03;5073141;28;20197;-65
2023/05/27 02:31:03;;;;;;;9.23;5.53;;;9.90;99.90;;;-141.84;65.72;19915.47;5059716;28;20327;-66
2023/05/27 02:33:31;;;;;;;12.17;6.07;;;9.90;99.90;;;-141.84;66.09;19911.41;5052788;28;20325;-67
2023/05/27 02:35:59;;;;;;;9.30;5.07;;;9.80;99.90;;;-141.84;65.30;19929.69;5052969;28;20292;-67
2023/05/27 02:38:28;;;;;;;10.17;5.07;;;9.80;99.90;;;-141.84;65.34;19968.31;5052834;28;20224;-66
2023/05/27 02:40:56;;;;;;;11.37;5.37;;;9.80;99.90;;;-141.84;65.93;19927.66;5052984;28;20208;-67
2023/05/27 02:43:25;;;;;;;16.00;5.87;;;9.70;99.90;;;-141.84;66.89;19915.47;5054097;28;20225;-66
2023/05/27 02:45:53;;;;;;;15.90;5.97;;;9.60;99.90;;;-141.84;66.96;19921.56;5071606;28;20228;-66
2023/05/27 02:48:24;;;;;;;11.83;5.67;;;9.60;99.90;;;-141.84;67.21;19889.03;5073023;28;20659;-67
2023/05/27 02:50:52;;;;;;;11.77;5.57;;;9.50;99.90;;;-141.84;67.44;19899.19;5072805;28;20240;-68
2023/05/27 02:53:20;;;;;;;11.50;6.10;;;9.50;99.90;;;-141.84;66.89;19907.31;5072623;28;20610;-66
2023/05/27 02:55:48;;;;;;;10.30;5.37;;;9.50;99.90;;;-141.84;67.85;19884.97;5072726;28;20291;-66
2023/05/27 02:58:17;;;;;;;14.87;5.83;;;9.40;99.90;;;-141.84;66.23;19917.50;5072575;28;20231;-66
2023/05/27 03:00:45;;;;;;;13.23;5.90;;;9.50;99.90;;;-141.84;66.21;19931.72;5061447;28;20247;-66
2023/05/27 03:03:13;;;;;;;9.97;5.40;;;9.60;99.90;;;-141.84;66.07;19923.59;5052517;28;20198;-66
2023/05/27 03:05:43;;;;;;;11.20;5.50;;;9.60;99.90;;;-141.84;65.68;19937.81;5052353;28;20709;-67
2023/05/27 03:08:11;;;;;;;11.27;5.60;;;9.60;99.90;;;-141.84;66.12;19970.34;5064385;28;20279;-56
2023/05/27 03:10:39;;;;;;;12.80;5.00;;;9.60;99.90;;;-141.84;66.53;19915.47;5072205;28;20229;-56
2023/05/27 03:13:08;;;;;;;12.60;5.47;;;9.60;99.90;;;-141.84;66.30;19931.72;5072147;28;20299;-55
2023/05/27 03:15:36;;;;;;;11.57;5.57;;;9.60;99.90;;;-141.84;66.41;19933.75;5072206;28;20305;-54
2023/05/27 03:18:04;;;;;;;12.40;5.30;;;9.50;99.90;;;-141.84;67.69;19901.22;5072237;28;20283;-56
2023/05/27 03:20:32;;;;;;;12.20;5.30;;;9.40;99.90;;;-141.84;67.74;19862.63;5060085;28;20210;-56
2023/05/27 03:23:02;;;;;;;12.93;6.13;;;9.40;99.90;;;-141.84;68.57;19860.59;5051813;28;20832;-56
2023/05/27 03:25:33;;;;;;;10.80;5.30;;;9.40;99.90;;;-141.84;67.91;19897.16;5052206;28;20228;-55
2023/05/27 03:28:01;;;;;;;10.70;5.10;;;9.40;99.90;;;-141.84;67.76;19862.63;5064179;28;20219;-55
2023/05/27 03:30:30;;;;;;;11.83;5.20;;;9.40;99.90;;;-141.84;67.94;19880.91;5063006;28;20260;-55
2023/05/27 03:32:58;;;;;;;10.80;5.60;;;9.40;99.90;;;-141.84;68.36;19870.75;5051377;28;20276;-54
2023/05/27 03:35:26;;;;;;;10.47;5.30;;;9.40;99.90;;;-141.84;67.71;19907.31;5051623;28;20202;-55
2023/05/27 03:37:54;;;;;;;9.63;5.40;;;9.40;99.90;;;-141.84;68.62;19891.06;5052114;28;20267;-56
2023/05/27 03:40:24;;;;;;;9.47;4.83;;;9.40;99.90;;;-141.84;69.08;19836.19;5051786;28;20225;-57
2023/05/27 03:42:52;;;;;;;10.10;5.40;;;9.40;99.90;;;-141.84;69.15;19878.88;5051627;28;20626;-56
2023/05/27 03:45:20;;;;;;;11.67;5.63;;;9.30;99.90;;;-141.84;69.40;19848.38;5065286;28;20239;-56
2023/05/27 03:47:48;;;;;;;10.37;5.10;;;9.30;99.90;;;-141.84;68.26;19913.44;5071603;28;20201;-57
2023/05/27 03:50:17;;;;;;;10.33;5.60;;;9.40;99.90;;;-141.84;68.03;19895.13;5071295;28;20605;-57
2023/05/27 03:52:46;;;;;;;12.90;5.50;;;9.50;99.90;;;-141.84;67.52;19901.22;5071312;28;20218;-53
2023/05/27 03:55:14;;;;;;;13.80;5.73;;;9.60;99.90;;;-141.84;67.05;19933.75;5071430;28;20240;-56
2023/05/27 03:57:43;;;;;;;9.23;5.10;;;9.70;99.90;;;-141.84;66.79;19919.53;5071412;28;20196;-54
2023/05/27 04:00:13;;;;;;;8.30;5.00;;;9.70;99.90;;;-141.84;67.48;19921.56;5064885;28;20201;-56
2023/05/27 04:02:41;;;;;;;14.17;5.03;;;9.70;99.90;;;-141.84;67.72;19927.66;5051179;28;20233;-55
2023/05/27 04:05:10;;;;;;;13.17;5.37;;;9.70;99.90;;;-141.84;67.57;19901.22;5051416;28;20280;-56
2023/05/27 04:07:38;;;;;;;13.00;5.07;;;9.70;99.90;;;-141.84;67.68;19917.50;5058621;28;20192;-55
2023/05/27 04:10:08;;;;;;;12.87;5.00;;;9.80;99.90;;;-141.84;67.40;19931.72;5071283;28;20292;-55
2023/05/27 04:12:36;;;;;;;12.47;5.43;;;9.80;99.90;;;-141.84;66.87;19937.81;5070870;28;20250;-55
2023/05/27 04:15:08;;;;;;;10.57;5.30;;;9.90;99.90;;;-141.84;66.80;19923.59;5070674;28;20283;-54
2023/05/27 04:17:36;;;;;;;11.57;5.17;;;9.90;99.90;;;-141.84;67.09;19935.78;5070767;28;20208;-55
2023/05/27 04:20:13;;;;;;;11.87;5.10;;;10.00;99.90;;;-141.84;66.72;19925.63;5071043;28;20265;-57
2023/05/27 04:22:43;;;;;;;9.43;5.27;;;10.00;99.90;;;-141.84;66.64;19956.09;5070641;28;20559;-52
2023/05/27 04:25:11;;;;;;;11.67;5.57;;;10.10;99.90;;;-141.84;65.48;19988.63;5070966;28;20227;-56
2023/05/27 04:27:40;;;;;;;9.97;5.03;;;10.20;99.90;;;-141.84;64.85;20021.16;5070797;28;20355;-56
2023/05/27 04:30:11;;;;;;;14.80;5.33;;;10.30;99.90;;;-141.84;64.84;19968.31;5065298;28;20232;-57
2023/05/27 04:32:39;;;;;;;11.33;5.00;;;10.30;99.90;;;-141.84;63.77;20035.38;5050288;28;20239;-55
2023/05/27 04:35:11;;;;;;;8.37;5.13;;;10.40;99.90;;;-141.84;64.26;20008.94;5050919;28;20611;-58
2023/05/27 04:37:40;;;;;;;9.47;4.83;;;10.50;99.90;;;-141.84;63.75;20037.41;5050488;28;20734;-57
2023/05/27 04:40:10;;;;;;;9.90;5.17;;;10.60;99.90;;;-141.84;63.62;20043.50;5050706;28;20212;-58
2023/05/27 04:42:38;;;;;;;9.73;5.10;;;10.70;99.90;;;-141.84;62.48;20059.75;5050756;28;20216;-56
2023/05/27 04:45:11;;;;;;;12.43;5.50;;;10.80;99.90;;;-141.84;62.50;20051.63;5063067;28;20680;-55
2023/05/27 04:47:40;;;;;;;10.43;5.33;;;10.90;99.90;;;-141.84;62.42;20086.19;5069762;28;20184;-56
2023/05/27 04:50:10;;;;;;;13.73;6.70;;;11.00;99.90;;;-141.84;61.07;20147.16;5070082;28;20239;-54
2023/05/27 04:52:41;;;;;;;10.27;4.53;;;11.30;99.90;;;-141.84;56.03;20464.25;5070386;28;20218;-57
2023/05/27 04:55:11;;;;;;;10.70;5.13;;;12.30;99.90;;;-141.84;52.90;20606.53;5070687;28;20271;-56
2023/05/27 04:57:42;;;;;;;9.60;4.72;;;13.30;99.90;;;-141.84;50.02;20848.44;5070544;28;20185;-54
2023/05/27 05:00:35;;;;;;;9.70;4.80;;;14.40;99.90;;;-141.84;46.42;21053.78;5064036;28;20219;-56
2023/05/27 05:03:05;;;;;;;8.63;4.45;;;15.40;99.90;;;-141.84;44.86;21202.19;5051019;28;20243;-56
2023/05/27 05:05:34;;;;;;;9.35;4.97;;;16.30;99.90;;;-141.84;42.66;21330.28;5049991;28;20669;-57
2023/05/27 05:08:02;;;;;;;7.22;4.47;;;16.90;99.90;;;-141.84;42.70;21328.25;5060935;28;20200;-58
2023/05/27 05:10:31;;;;;;;7.70;4.60;;;17.10;99.90;;;-141.84;41.51;21399.41;5070292;28;20307;-58
2023/05/27 05:12:59;;;;;;;8.30;4.70;;;17.60;99.90;;;-141.84;41.96;21474.63;5070290;28;20254;-57
2023/05/27 05:15:30;;;;;;;8.18;4.78;;;17.70;99.90;;;-141.84;40.84;21507.16;5070155;28;20254;-57
2023/05/27 05:17:58;;;;;;;8.65;4.60;;;17.90;99.90;;;-141.84;40.93;21543.75;5070655;28;20185;-58
2023/05/27 05:20:29;;;;;;;9.43;4.90;;;18.00;99.90;;;-141.84;39.81;21582.38;5070077;28;20193;-58
2023/05/27 05:22:57;;;;;;;10.35;4.80;;;18.20;99.90;;;-141.84;40.74;21558.00;5070045;28;20672;-57
2023/05/27 05:25:25;;;;;;;8.23;4.95;;;17.90;99.90;;;-141.84;41.09;21448.19;5070207;28;20292;-57
2023/05/27 05:27:55;;;;;;;8.93;4.95;;;17.70;99.90;;;-141.84;42.12;21285.53;5069852;28;20228;-57
2023/05/27 05:30:23;;;;;;;11.30;5.40;;;17.20;99.90;;;-141.84;43.09;21200.16;5062362;28;20289;-57
2023/05/27 05:32:52;;;;;;;9.27;5.15;;;16.80;99.90;;;-141.84;45.43;21029.38;5049648;28;20257;-58
2023/05/27 05:35:21;;;;;;;12.40;5.35;;;16.30;99.90;;;-141.84;46.77;20911.47;5049994;28;20203;-57
2023/05/27 05:37:50;;;;;;;10.40;4.72;;;15.80;99.90;;;-141.84;47.84;20846.41;5050045;28;20205;-58
2023/05/27 05:40:18;;;;;;;10.23;5.00;;;15.70;99.90;;;-141.84;48.82;20807.78;5049736;28;20229;-55
2023/05/27 05:42:46;;;;;;;9.13;5.25;;;15.50;99.90;;;-141.84;49.48;20759.00;5050294;28;20194;-55
2023/05/27 05:45:14;;;;;;;8.73;5.05;;;15.50;99.90;;;-141.84;50.37;20726.47;5063108;28;20201;-56
2023/05/27 05:47:42;;;;;;;10.90;4.95;;;15.40;99.90;;;-141.84;50.17;20740.69;5069866;28;20240;-58
2023/05/27 05:50:12;;;;;;;7.65;4.63;;;15.30;99.90;;;-141.84;49.96;20736.63;5070028;28;20281;-55
2023/05/27 05:52:41;;;;;;;11.27;5.10;;;15.40;99.90;;;-141.84;49.93;20722.41;5069686;28;20748;-57
2023/05/27 05:55:09;;;;;;;11.65;4.55;;;15.20;99.90;;;-141.84;50.03;20728.50;5069609;28;20296;-57
2023/05/27 05:57:38;;;;;;;9.77;5.15;;;15.30;99.90;;;-141.84;50.71;20734.59;5069879;28;20266;-58
2023/05/27 06:00:08;;;;;;;11.25;5.10;;;15.20;99.90;;;-141.84;50.68;20769.16;5066786;28;20248;-57
2023/05/27 06:02:37;;;;;;;11.82;5.00;;;15.40;99.90;;;-141.84;50.12;20789.50;5053369;28;20645;-59
2023/05/27 06:05:06;;;;;;;8.23;4.53;;;15.60;99.90;;;-141.84;50.00;20842.34;5053631;28;20197;-56
2023/05/27 06:07:35;;;;;;;14.68;5.18;;;15.60;99.90;;;-141.84;49.78;20769.16;5059790;28;20656;-58
2023/05/27 06:10:04;;;;;;;7.88;4.60;;;15.70;99.90;;;-141.84;49.48;20817.94;5073351;28;20217;-59
2023/05/27 06:12:32;;;;;;;9.25;4.65;;;15.70;99.90;;;-141.84;49.32;20844.38;5073385;28;20659;-58
2023/05/27 06:15:00;;;;;;;9.85;4.55;;;15.90;99.90;;;-141.84;49.04;20854.53;5073347;28;20300;-56
2023/05/27 06:17:29;;;;;;;12.63;5.40;;;16.10;99.90;;;-141.84;48.62;20911.47;5073381;28;20232;-56
2023/05/27 06:19:57;;;;;;;13.05;4.70;;;16.30;99.90;;;-141.84;48.53;20939.94;5073264;28;20209;-58
2023/05/27 06:22:25;;;;;;;10.52;4.53;;;16.40;99.90;;;-141.84;47.88;20937.91;5073640;28;20722;-58
2023/05/27 06:24:55;;;;;;;10.25;4.97;;;16.50;99.90;;;-141.84;47.72;20998.88;5073119;28;20244;-57
2023/05/27 06:27:23;;;;;;;9.45;4.28;;;16.70;99.90;;;-141.84;46.88;20964.31;5073476;28;20211;-56
2023/05/27 06:29:51;;;;;;;10.35;4.03;;;16.70;99.90;;;-141.84;48.01;20917.56;5070085;28;20260;-57
2023/05/27 06:32:20;;;;;;;9.70;4.05;;;16.50;99.90;;;-141.84;47.41;20911.47;5052547;28;20532;-57
2023/05/27 06:34:48;;;;;;;8.52;3.65;;;16.60;99.90;;;-141.84;46.42;20970.41;5053036;28;20289;-58
2023/05/27 06:37:16;;;;;;;8.80;4.20;;;16.70;99.90;;;-141.84;46.97;21004.97;5052971;28;20219;-56
2023/05/27 06:39:44;;;;;;;10.40;4.30;;;16.80;99.90;;;-141.84;46.94;20956.19;5052930;28;20205;-58
2023/05/27 06:42:14;;;;;;;9.82;3.92;;;16.70;99.90;;;-141.84;46.66;20935.88;5065341;28;20727;-57
2023/05/27 06:44:43;;;;;;;8.95;3.55;;;16.70;99.90;;;-141.84;46.08;20984.66;5073284;28;20200;-55
2023/05/27 06:47:11;;;;;;;12.70;3.72;;;16.70;99.90;;;-141.84;46.39;20970.41;5073083;28;20208;-57
2023/05/27 06:49:39;;;;;;;10.73;3.80;;;16.80;99.90;;;-141.84;45.83;20964.31;5072809;28;20224;-59
2023/05/27 06:52:08;;;;;;;10.05;3.80;;;16.80;99.90;;;-141.84;46.56;20968.38;5072622;28;20311;-57
2023/05/27 06:54:40;;;;;;;8.95;3.65;;;16.80;99.90;;;-141.84;46.03;20972.47;5072671;28;20203;-56
2023/05/27 06:57:08;;;;;;;7.63;3.22;;;16.80;99.90;;;-141.84;46.14;20960.25;5072683;28;20200;-57
2023/05/27 06:59:38;;;;;;;10.82;3.90;;;16.80;99.90;;;-141.84;46.23;20956.19;5070002;28;20576;-57
2023/05/27 07:02:07;;;;;;;7.43;3.30;;;16.70;99.90;;;-141.84;46.71;20939.94;5052012;28;20765;-57
2023/05/27 07:04:35;;;;;;;9.10;3.85;;;16.70;99.90;;;-141.84;46.55;20958.22;5064161;28;20196;-58
2023/05/27 07:07:04;;;;;;;6.80;3.78;;;16.80;99.90;;;-141.84;46.33;21000.91;5071762;28;21095;-59
2023/05/27 07:09:32;;;;;;;8.73;3.80;;;16.80;99.90;;;-141.84;46.50;20996.84;5071345;28;20208;-57
2023/05/27 07:12:02;;;;;;;7.78;3.33;;;17.00;99.90;;;-141.84;46.24;20980.59;5067145;28;20311;-56
2023/05/27 07:14:30;;;;;;;9.52;3.30;;;17.00;99.90;;;-141.84;45.98;21007.00;5072021;28;20196;-58
2023/05/27 07:17:00;;;;;;;8.10;3.42;;;16.90;99.90;;;-141.84;46.35;21000.91;5072036;28;20208;-57
2023/05/27 07:19:29;;;;;;;8.65;2.90;;;16.90;99.90;;;-141.84;46.88;20970.41;5071884;28;20688;-59
2023/05/27 07:21:57;;;;;;;10.23;3.47;;;16.80;99.90;;;-141.84;46.56;21007.00;5071977;28;20204;-57
2023/05/27 07:24:25;;;;;;;10.02;3.25;;;16.80;99.90;;;-141.84;47.26;20937.91;5071963;28;20459;-57
2023/05/27 07:26:53;;;;;;;10.57;3.75;;;16.70;99.90;;;-141.84;47.31;21007.00;5068644;28;20225;-57
2023/05/27 07:29:22;;;;;;;8.68;3.78;;;16.80;99.90;;;-141.84;47.12;20952.13;5051914;28;20212;-58
2023/05/27 07:31:50;;;;;;;10.70;3.63;;;16.70;99.90;;;-141.84;46.65;20984.66;5051388;28;20631;-57
2023/05/27 07:34:20;;;;;;;6.60;3.60;;;16.70;99.90;;;-141.84;46.82;20988.72;5052202;28;20242;-57
2023/05/27 07:36:49;;;;;;;7.93;3.22;;;16.70;99.90;;;-141.84;46.51;20982.63;5051575;28;20686;-58
2023/05/27 07:39:17;;;;;;;10.07;3.58;;;16.60;99.90;;;-141.84;47.24;20915.53;5071012;28;20668;-58
2023/05/27 07:41:45;;;;;;;7.45;2.92;;;16.50;99.90;;;-141.84;46.86;21000.91;5071777;28;20255;-58
2023/05/27 07:44:13;;;;;;;8.35;3.33;;;16.50;99.90;;;-141.84;46.32;20982.63;5071663;28;20239;-56
2023/05/27 07:46:41;;;;;;;5.10;2.55;;;16.60;99.90;;;-141.84;46.87;20935.88;5070647;28;20715;-58
2023/05/27 07:49:10;;;;;;;7.53;2.78;;;16.50;99.90;;;-141.84;47.03;20976.53;5071674;28;20246;-56
2023/05/27 07:51:40;;;;;;;8.25;3.33;;;16.60;99.90;;;-141.84;46.19;21013.13;5071555;28;20292;-55
2023/05/27 07:54:08;;;;;;;7.70;3.35;;;16.80;99.90;;;-141.84;46.20;21070.03;5071814;28;20220;-57
2023/05/27 07:56:36;;;;;;;10.52;3.25;;;16.80;99.90;;;-141.84;46.67;21029.38;5071284;28;20288;-56
2023/05/27 07:59:05;;;;;;;7.07;2.75;;;16.90;99.90;;;-141.84;45.81;21021.25;5071025;28;20201;-58
2023/05/27 08:01:33;;;;;;;7.90;2.97;;;16.90;99.90;;;-141.84;45.51;21031.41;5070135;28;20664;-56
2023/05/27 08:04:01;;;;;;;6.88;3.28;;;16.90;99.90;;;-141.84;45.62;21031.41;5071369;28;20679;-60
2023/05/27 08:06:41;;;;;;;8.65;3.38;;;16.90;99.90;;;-141.84;44.97;21027.34;5071029;28;20189;-57
2023/05/27 08:09:09;;;;;;;7.78;2.70;;;16.90;99.90;;;-141.84;45.02;21013.13;5070658;28;20284;-58
2023/05/27 08:11:37;;;;;;;8.45;2.90;;;16.90;99.90;;;-141.84;45.14;21013.13;5070993;28;20228;-59
2023/05/27 08:14:05;;;;;;;7.72;3.22;;;16.70;99.90;;;-141.84;45.57;21000.91;5071415;28;20243;-57
2023/05/27 08:16:34;;;;;;;8.95;3.30;;;16.80;99.90;;;-141.84;46.03;20988.72;5070724;28;20258;-56
2023/05/27 08:19:02;;;;;;;6.85;2.85;;;16.70;99.90;;;-141.84;46.63;20939.94;5070995;28;20255;-58
2023/05/27 08:21:31;;;;;;;5.50;2.92;;;16.60;99.90;;;-141.84;45.80;20956.19;5070178;28;20201;-58
2023/05/27 08:24:00;;;;;;;6.90;3.13;;;16.60;99.90;;;-141.84;45.86;20937.91;5070927;28;20288;-58
2023/05/27 08:26:28;;;;;;;8.45;3.13;;;16.60;99.90;;;-141.84;45.99;20984.66;5071028;28;20295;-59
2023/05/27 08:28:56;;;;;;;6.45;2.80;;;16.60;99.90;;;-141.84;44.61;20982.63;5051105;28;20229;-59
2023/05/27 08:31:25;;;;;;;7.78;3.08;;;16.70;99.90;;;-141.84;45.20;21039.53;5050474;28;20248;-60
2023/05/27 08:33:53;;;;;;;5.60;3.10;;;16.80;99.90;;;-141.84;44.00;21059.88;5055897;28;20232;-56
2023/05/27 08:36:21;;;;;;;7.47;3.20;;;16.90;99.90;;;-141.84;43.79;21049.72;5070676;28;20660;-59
2023/05/27 08:38:49;;;;;;;7.25;3.10;;;17.00;99.90;;;-141.84;44.52;21033.44;5070496;28;20200;-57
2023/05/27 08:41:19;;;;;;;8.30;2.92;;;17.10;99.90;;;-141.84;44.66;21100.53;5065617;28;20235;-58
2023/05/27 08:43:47;;;;;;;7.10;3.28;;;17.10;99.90;;;-141.84;43.89;21057.84;5069791;28;20231;-58
2023/05/27 08:46:16;;;;;;;9.57;3.75;;;17.00;99.90;;;-141.84;44.88;20960.25;5064661;28;20209;-59
2023/05/27 08:48:44;;;;;;;6.80;3.28;;;16.80;99.90;;;-141.84;45.32;20980.59;5070902;28;20192;-60
2023/05/27 08:51:14;;;;;;;9.70;3.72;;;16.70;99.90;;;-141.84;45.09;21015.16;5069403;28;20220;-58
2023/05/27 08:53:43;;;;;;;6.20;2.83;;;16.80;99.90;;;-141.84;45.12;20992.78;5069085;28;20243;-58
2023/05/27 08:56:15;;;;;;;6.85;3.40;;;16.90;99.90;;;-141.84;44.86;21023.28;5065724;28;20225;-59
2023/05/27 08:58:45;;;;;;;6.80;3.35;;;17.00;99.90;;;-141.84;44.26;21063.94;5067487;28;20618;-58
2023/05/27 09:01:16;;;;;;;9.43;3.17;;;17.10;99.90;;;-141.84;43.12;21114.75;5063717;28;20664;-58
2023/05/27 09:03:44;;;;;;;10.27;2.65;;;17.20;99.90;;;-141.84;43.57;21053.78;5070159;28;20193;-58
2023/05/27 09:06:13;;;;;;;6.05;2.90;;;17.20;99.90;;;-141.84;44.12;21041.56;5069308;28;20208;-57
2023/05/27 09:08:41;;;;;;;5.45;2.50;;;17.10;99.90;;;-141.84;43.78;21045.63;5070020;28;20232;-59
2023/05/27 09:11:23;;;;;;;6.80;2.80;;;17.10;99.90;;;-141.84;42.79;21049.72;5069476;28;20239;-58
2023/05/27 09:13:55;;;;;;;3.78;2.40;;;17.00;99.90;;;-141.84;41.30;21061.91;5068443;28;20208;-62
2023/05/27 09:16:24;;;;;;;6.03;3.00;;;17.10;99.90;;;-141.84;42.69;20994.81;5069030;28;20196;-58
2023/05/27 09:18:53;;;;;;;7.13;2.40;;;16.90;99.90;;;-141.84;43.24;21029.38;5070375;28;20291;-58
2023/05/27 09:21:21;;;;;;;7.10;2.55;;;16.90;99.90;;;-141.84;43.14;21047.69;5066968;28;20307;-58
2023/05/27 09:23:49;;;;;;;5.03;2.60;;;16.90;99.90;;;-141.84;43.28;20992.78;5063564;28;20316;-57
2023/05/27 09:26:17;;;;;;;8.00;2.85;;;16.90;99.90;;;-141.84;43.17;21017.19;5068884;28;20205;-58
2023/05/27 09:28:46;;;;;;;4.68;2.45;;;16.90;99.90;;;-141.84;42.43;20996.84;5068799;28;20284;-59
2023/05/27 09:31:16;;;;;;;11.10;3.20;;;16.90;99.90;;;-141.84;43.09;21059.88;5067581;28;20300;-60
2023/05/27 09:33:44;;;;;;;7.05;2.60;;;17.00;99.90;;;-141.84;43.07;21037.50;5068070;28;20260;-60
2023/05/27 09:36:13;;;;;;;7.75;2.90;;;17.00;99.90;;;-141.84;43.02;21033.44;5072623;28;20204;-60
2023/05/27 09:38:41;;;;;;;6.78;2.55;;;17.00;99.90;;;-141.84;42.39;21043.59;5070045;28;20275;-59
2023/05/27 09:41:09;;;;;;;6.32;3.33;;;17.10;99.90;;;-141.84;43.40;21072.06;5069081;28;20196;-59
2023/05/27 09:43:38;;;;;;;7.25;3.17;;;17.00;99.90;;;-141.84;42.83;21029.38;5069352;28;20676;-60
2023/05/27 09:46:16;;;;;;;6.53;2.92;;;17.00;99.90;;;-141.84;42.66;21045.63;5070978;28;20318;-58
2023/05/27 09:48:45;;;;;;;5.80;2.70;;;17.00;99.90;;;-141.84;43.28;21027.34;5072308;28;20200;-58
2023/05/27 09:51:14;;;;;;;6.82;2.80;;;16.90;99.90;;;-141.84;43.43;21023.28;5072298;28;20641;-57
2023/05/27 09:53:44;;;;;;;8.32;3.40;;;16.90;99.90;;;-141.84;43.89;21013.13;5069904;28;20216;-60
2023/05/27 09:56:12;;;;;;;6.32;3.28;;;16.90;99.90;;;-141.84;43.04;21070.03;5070675;28;20748;-60
2023/05/27 09:58:40;;;;;;;7.40;3.20;;;17.10;99.90;;;-141.84;43.15;21114.75;5069644;28;20243;-59
2023/05/27 10:01:10;;;;;;;4.90;2.88;;;17.20;99.90;;;-141.84;42.42;21076.13;5067130;28;20232;-59
2023/05/27 10:03:44;;;;;;;6.13;2.95;;;17.30;99.90;;;-141.84;41.58;21110.69;5070814;28;20201;-58
2023/05/27 10:06:15;;;;;;;6.90;2.88;;;17.40;99.90;;;-141.84;41.49;21151.34;5070475;28;20295;-59
2023/05/27 10:08:44;;;;;;;5.60;3.00;;;17.50;99.90;;;-141.84;41.42;21135.09;5071701;28;20669;-59
2023/05/27 10:11:13;;;;;;;7.55;3.47;;;17.50;99.90;;;-141.84;41.26;21147.28;5067043;28;20559;-60
2023/05/27 10:13:42;;;;;;;6.90;3.00;;;17.60;99.90;;;-141.84;41.49;21151.34;5071898;28;20224;-58